Terminal Aerodrome Forecast
Issued by NWS

Home | Current Version | Previous Version | Text Only | Print | Product List | Glossary On
Versions: 1 2 3 4 5 6 7 8 9 10 11 12 13 14 15 16 17 18 19 20 21 22 23 24
000
FTAK31 PAJN 150800 AAA
TAFAJN
TAF AMD
PAJN 150814Z 1508/1606 VRB03KT 1SM BR VV002
      TEMPO 1508/1510 1/4SM FG
     FM151000 00000KT 1/4SM FG VV002
     FM151900 VRB05KT 5SM BCFG SCT003 BKN010 BKN100
     FM152000 12008KT P6SM SCT010 BKN080
     FM160200 10005KT P6SM SCT010 BKN060 OVC080=

USA.gov is the U.S. government's official web portal to all federal, state and local government web resources and services.